Time;durP1;ratioP1;P1;durP2;ratioP2;P2;SDS_P1;SDS_P2;PMS_P1;PMS_P2;Temp;Humidity;BMP_temperature;BMP_pressure;BME280_temperature;BME280_humidity;BME280_pressure;Samples;Min_cycle;Max_cycle;Signal;HPM_P1;HPM_P2
2022/01/22 00:01:46;;;;;;;4.07;2.50;;;;;;;-2.76;80.88;99695.72;4998129;28;20175;-84
2022/01/22 00:04:11;;;;;;;5.20;2.55;;;;;;;-4.82;80.47;99378.06;5014221;28;20305;-84
2022/01/22 00:06:37;;;;;;;6.93;2.83;;;;;;;-3.61;80.32;99528.78;5015616;28;20730;-85
2022/01/22 00:09:04;;;;;;;5.03;3.03;;;;;;;-4.49;79.95;99365.78;5025861;28;20178;-84
2022/01/22 00:11:35;;;;;;;7.13;3.05;;;;;;;-2.02;79.52;99774.97;5039621;28;20225;-84
2022/01/22 00:16:45;;;;;;;8.40;3.78;;;;;;;-1.95;78.71;99783.16;5038537;28;20162;-85
2022/01/22 00:19:10;;;;;;;6.10;3.00;;;;;;;-2.43;78.62;99687.53;5015824;28;20257;-85
2022/01/22 00:21:37;;;;;;;5.87;3.37;;;;;;;-1.87;78.18;99776.50;5015618;28;20206;-85
2022/01/22 00:24:09;;;;;;;7.25;3.53;;;;;;;-2.03;78.94;99774.09;5015582;28;20171;-84
2022/01/22 00:26:34;;;;;;;4.75;3.30;;;;;;;-5.92;77.83;99096.34;5015914;28;20202;-84
2022/01/22 00:29:00;;;;;;;9.13;2.90;;;;;;;-2.49;77.37;99703.38;5015748;28;20181;-84
2022/01/22 00:31:25;;;;;;;5.43;3.00;;;;;;;-3.59;77.67;99496.03;5015484;28;20848;-85
2022/01/22 00:33:50;;;;;;;5.73;2.80;;;;;;;-4.65;77.81;99308.16;5014926;28;20611;-85
2022/01/22 00:36:16;;;;;;;6.57;2.97;;;;;;;-4.19;78.05;99404.31;5014857;28;20218;-85
2022/01/22 00:38:41;;;;;;;6.57;2.83;;;;;;;-2.13;77.88;99805.28;5014847;28;20175;-84
2022/01/22 00:41:07;;;;;;;4.70;2.53;;;;;;;-5.43;78.84;99209.00;5014798;28;20171;-84
2022/01/22 00:43:32;;;;;;;5.17;2.53;;;;;;;-5.50;79.91;99237.81;5014592;28;20249;-85
2022/01/22 00:45:58;;;;;;;3.27;1.90;;;;;;;-5.18;80.25;99292.88;5015060;28;20239;-86
2022/01/22 00:48:23;;;;;;;4.53;2.43;;;;;;;-5.51;79.30;99246.81;5015130;28;20204;-85
2022/01/22 00:50:53;;;;;;;5.20;2.20;;;;;;;-2.68;79.94;99745.28;5015326;28;20167;-85
2022/01/22 00:53:19;;;;;;;3.30;2.05;;;;;;;-3.90;79.66;99525.00;5014607;28;20276;-84
2022/01/22 00:55:44;;;;;;;4.67;2.70;;;;;;;-4.69;77.25;99375.22;5014655;28;20657;-85
2022/01/22 00:58:09;;;;;;;5.03;2.40;;;;;;;-3.44;76.69;99598.13;5014077;28;20708;-84
2022/01/22 01:00:35;;;;;;;4.87;2.30;;;;;;;-5.32;75.98;99298.00;5015525;28;20228;-84
2022/01/22 01:03:00;;;;;;;3.60;1.93;;;;;;;-4.19;74.75;99442.94;5015225;28;20171;-84
2022/01/22 01:05:26;;;;;;;5.47;2.63;;;;;;;-3.60;74.67;99525.59;5013142;28;20292;-84
2022/01/22 01:07:51;;;;;;;4.53;2.20;;;;;;;-4.56;74.66;99368.34;5014417;28;20301;-85
2022/01/22 01:10:18;;;;;;;4.80;2.40;;;;;;;-4.23;74.58;99433.50;5014388;28;20174;-83
2022/01/22 01:12:45;;;;;;;4.40;1.90;;;;;;;-2.52;75.04;99757.59;5014141;28;20203;-85
2022/01/22 01:34:09;;;;;;;4.05;2.40;;;;;;;-3.00;74.49;99665.31;5014661;28;20177;-85
2022/01/22 01:36:35;;;;;;;5.30;2.90;;;;;;;-3.16;73.84;99634.78;5014512;28;20233;-85
2022/01/22 01:39:03;;;;;;;4.93;2.20;;;;;;;-3.77;73.67;99530.44;5029721;28;20175;-85
2022/01/22 01:41:41;;;;;;;4.70;1.88;;;;;;;-4.26;73.72;99436.50;5013722;28;20402;-84
2022/01/22 01:44:07;;;;;;;6.45;2.33;;;;;;;-5.38;73.08;99267.06;5013724;28;20167;-84
2022/01/22 01:46:33;;;;;;;5.07;2.10;;;;;;;-4.72;73.13;99360.97;5014069;28;20754;-85
2022/01/22 01:48:59;;;;;;;4.63;2.47;;;;;;;-3.05;73.32;99651.59;5013570;28;20166;-85
2022/01/22 01:51:29;;;;;;;3.73;1.83;;;;;;;-2.47;73.64;99730.06;5014742;28;20262;-84
2022/01/22 01:54:05;;;;;;;5.07;2.42;;;;;;;-3.28;73.56;99601.41;5016443;28;20850;-84
2022/01/22 01:59:16;;;;;;;2.78;1.70;;;;;;;-3.53;73.65;99550.19;5017222;28;20181;-84
2022/01/22 02:01:42;;;;;;;4.57;2.47;;;;;;;-2.51;73.79;99735.47;5013793;28;20657;-84
2022/01/22 02:04:10;;;;;;;6.25;2.95;;;;;;;-3.22;73.81;99592.13;5014213;28;20605;-83
2022/01/22 02:06:36;;;;;;;5.47;2.45;;;;;;;-5.06;74.16;99290.06;4996367;28;20199;-84
2022/01/22 02:09:06;;;;;;;5.33;2.23;;;;;;;-2.52;73.69;99753.53;5012567;28;20570;-84
2022/01/22 02:11:31;;;;;;;6.65;3.22;;;;;;;-4.19;73.49;99438.91;5013617;28;20174;-83
2022/01/22 02:25:10;;;;;;;7.45;3.28;;;;;;;-3.40;74.31;99577.03;4972473;28;20203;-84
2022/01/22 02:27:36;;;;;;;5.45;2.83;;;;;;;-4.38;73.82;99370.19;4972831;28;20270;-85
2022/01/22 02:30:02;;;;;;;4.83;2.10;;;;;;;-2.59;73.20;99681.81;4989083;28;20168;-84
2022/01/22 02:35:38;;;;;;;3.83;2.20;;;;;;;-2.29;72.84;99706.22;4978587;28;20760;-85
2022/01/22 02:38:10;;;;;;;4.88;2.80;;;;;;;-3.51;73.06;99516.59;4969876;28;20172;-84
2022/01/22 02:40:42;;;;;;;4.80;2.40;;;;;;;-5.01;72.92;99241.19;4972510;28;20201;-83
2022/01/22 02:43:10;;;;;;;5.72;2.40;;;;;;;-4.87;72.63;99282.94;4972242;28;20623;-84
2022/01/22 02:45:35;;;;;;;4.40;2.45;;;;;;;-4.50;73.14;99330.31;4988289;28;20212;-84
2022/01/22 02:48:01;;;;;;;6.23;3.13;;;;;;;-2.82;73.34;99626.63;4971915;28;20172;-84
2022/01/22 02:50:26;;;;;;;4.97;2.37;;;;;;;-4.88;73.08;99249.09;4972000;28;20168;-84
2022/01/22 02:52:52;;;;;;;4.07;2.13;;;;;;;-5.01;73.45;99260.91;4988039;28;20623;-84
2022/01/22 02:55:17;;;;;;;5.23;2.53;;;;;;;-6.41;73.02;99018.19;5012474;28;20175;-84
2022/01/22 02:57:44;;;;;;;5.93;2.63;;;;;;;-2.43;74.01;99707.34;5012420;28;20182;-85
2022/01/22 03:00:14;;;;;;;5.80;3.03;;;;;;;-5.14;74.08;99267.81;5027647;28;20179;-84
2022/01/22 03:02:39;;;;;;;4.07;1.83;;;;;;;-2.51;74.80;99694.94;5011292;28;20659;-84
2022/01/22 03:05:08;;;;;;;4.43;2.47;;;;;;;-5.18;75.06;99250.94;5011914;28;20171;-83
2022/01/22 03:07:35;;;;;;;4.40;1.98;;;;;;;-6.31;74.81;99057.81;5012953;28;20720;-83
2022/01/22 03:10:04;;;;;;;5.53;1.98;;;;;;;-2.66;75.26;99671.13;5011343;28;20186;-83
2022/01/22 03:27:58;;;;;;;7.93;3.03;;;;;;;-3.97;76.09;99486.41;5012655;28;20174;-85
2022/01/22 03:30:24;;;;;;;6.83;3.30;;;;;;;-2.62;76.44;99686.44;5012278;28;20559;-83
2022/01/22 03:32:53;;;;;;;5.10;2.92;;;;;;;-2.52;75.99;99691.56;5016205;28;20174;-85
2022/01/22 03:37:52;;;;;;;7.40;3.63;;;;;;;-2.90;75.34;99629.94;5021874;28;20159;-85
2022/01/22 03:40:21;;;;;;;4.03;2.53;;;;;;;-5.03;75.00;99257.44;5021496;28;20159;-85
2022/01/22 03:42:48;;;;;;;10.60;2.60;;;;;;;-2.46;75.24;99686.34;5015908;28;20639;-84
2022/01/22 03:45:14;;;;;;;7.13;2.88;;;;;;;-5.13;74.44;99250.69;5016767;28;20198;-85
2022/01/22 03:47:40;;;;;;;6.87;2.63;;;;;;;-3.99;73.82;99417.75;5016640;28;20174;-84
2022/01/22 03:50:07;;;;;;;6.10;3.00;;;;;;;-2.44;74.06;99690.72;5016124;28;20699;-84
2022/01/22 03:52:33;;;;;;;9.15;3.25;;;;;;;-3.23;74.18;99572.16;4998574;28;20191;-85
2022/01/22 03:54:58;;;;;;;5.53;2.10;;;;;;;-5.11;74.18;99233.59;5016872;28;20627;-84
2022/01/22 03:57:24;;;;;;;4.03;2.70;;;;;;;-7.12;74.03;98896.09;5000161;28;20175;-84
2022/01/22 03:59:52;;;;;;;3.60;2.40;;;;;;;-4.57;74.18;99324.63;5017408;28;20246;-85
2022/01/22 04:05:03;;;;;;;6.07;2.95;;;;;;;-3.86;74.18;99445.44;5016215;28;20657;-85
2022/01/22 04:10:15;;;;;;;7.65;3.08;;;;;;;-3.14;74.85;99565.66;5016373;28;20232;-85
2022/01/22 04:15:11;;;;;;;5.63;2.92;;;;;;;-2.64;75.54;99689.50;5015640;28;20249;-84
2022/01/22 04:26:22;;;;;;;6.13;2.90;;;;;;;-3.56;76.63;99542.47;4993172;28;20226;-84
2022/01/22 04:28:36;;;;;;;7.88;3.30;;;;;;;-3.03;76.41;99617.09;4992750;28;20183;-84
2022/01/22 04:31:02;;;;;;;9.33;3.67;;;;;;;-3.00;76.33;99620.75;4993463;28;20595;-84
2022/01/22 04:33:27;;;;;;;5.80;3.20;;;;;;;-3.85;76.05;99466.97;4993384;28;20259;-85
2022/01/22 04:35:53;;;;;;;4.97;2.37;;;;;;;-5.25;75.72;99243.66;4993407;28;20338;-84
2022/01/22 04:38:18;;;;;;;5.17;2.43;;;;;;;-3.52;75.65;99509.03;4994333;28;20199;-85
2022/01/22 04:40:43;;;;;;;8.13;3.00;;;;;;;-5.02;75.72;99262.50;4994582;28;20175;-85
2022/01/22 04:43:10;;;;;;;7.47;2.70;;;;;;;-3.70;76.08;99485.81;4993666;28;20195;-84
2022/01/22 04:56:38;;;;;;;10.93;4.53;;;;;;;-3.95;77.33;99484.94;4939612;29;20195;-84
2022/01/22 04:59:04;;;;;;;15.33;5.07;;;;;;;-3.16;77.01;99622.41;4939230;29;20181;-84
2022/01/22 05:01:30;;;;;;;13.03;6.20;;;;;;;-3.23;76.80;99625.00;4938083;29;20284;-84
2022/01/22 05:03:55;;;;;;;14.97;7.27;;;;;;;-3.74;76.57;99528.28;4937537;29;20177;-84
2022/01/22 05:06:21;;;;;;;12.20;4.93;;;;;;;-3.91;76.51;99506.81;4953951;29;20200;-85
2022/01/22 05:08:46;;;;;;;7.30;3.47;;;;;;;-5.22;76.87;99278.50;4953736;29;20236;-85
2022/01/22 05:11:12;;;;;;;30.90;11.27;;;;;;;-4.42;77.03;99438.16;4937259;29;20570;-84
2022/01/22 05:13:37;;;;;;;30.27;9.47;;;;;;;-2.97;76.87;99692.84;4953488;29;20200;-85
2022/01/22 05:16:03;;;;;;;13.90;4.93;;;;;;;-5.77;76.93;99225.13;4953430;29;20181;-85
2022/01/22 05:18:28;;;;;;;11.60;5.57;;;;;;;-3.87;76.68;99537.66;4952868;29;20199;-84
2022/01/22 05:21:05;;;;;;;9.13;3.87;;;;;;;-5.47;76.47;99276.00;4954072;29;20244;-84
2022/01/22 05:23:32;;;;;;;9.35;3.78;;;;;;;-6.75;76.56;99034.44;4953546;29;20181;-85
2022/01/22 05:26:01;;;;;;;5.57;3.03;;;;;;;-5.82;76.17;99180.28;4968792;28;20215;-85
2022/01/22 05:38:56;;;;;;;13.23;6.13;;;;;;;-3.18;74.19;99579.31;5014407;28;20210;-84
2022/01/22 05:41:21;;;;;;;10.27;4.07;;;;;;;-3.63;73.87;99515.38;5014926;28;20191;-84
2022/01/22 05:43:46;;;;;;;6.57;3.90;;;;;;;-3.14;74.61;99621.00;5013747;28;20261;-84
2022/01/22 05:46:12;;;;;;;6.80;3.07;;;;;;;-4.35;74.34;99405.97;5013693;28;20195;-83
2022/01/22 05:48:37;;;;;;;6.73;3.57;;;;;;;-3.03;74.52;99631.94;5023432;28;20147;-86
2022/01/22 05:51:04;;;;;;;10.03;4.87;;;;;;;-4.13;74.27;99440.22;5015372;28;20155;-84
2022/01/22 05:53:45;;;;;;;13.45;4.95;;;;;;;-4.12;74.88;99430.47;5013880;28;20151;-86
2022/01/22 06:01:23;;;;;;;14.75;6.43;;;;;;;-4.25;75.05;99407.75;5013618;28;20166;-84
2022/01/22 06:03:49;;;;;;;38.95;12.75;;;;;;;-4.56;75.13;99358.47;5013107;28;20194;-84
2022/01/22 06:06:14;;;;;;;31.33;10.47;;;;;;;-3.93;75.25;99465.34;5013521;28;20226;-84
2022/01/22 06:08:53;;;;;;;40.00;12.50;;;;;;;-4.02;74.18;99449.59;5012454;28;20167;-85
2022/01/22 06:11:25;;;;;;;23.40;8.60;;;;;;;-5.84;74.44;99134.03;5013040;28;20291;-84
2022/01/22 06:13:51;;;;;;;12.07;5.05;;;;;;;-2.63;74.76;99651.59;5013066;28;20162;-84
2022/01/22 06:16:19;;;;;;;14.48;5.88;;;;;;;-2.53;74.13;99646.84;5013042;28;20191;-84
2022/01/22 06:18:45;;;;;;;10.57;5.30;;;;;;;-4.78;74.12;99315.94;5013088;28;20254;-85
2022/01/22 06:21:10;;;;;;;9.43;3.93;;;;;;;-3.63;74.27;99484.13;5013514;28;20611;-85
2022/01/22 06:23:37;;;;;;;13.40;5.33;;;;;;;-4.25;74.38;99361.69;5012236;28;20166;-85
2022/01/22 06:26:04;;;;;;;8.85;3.38;;;;;;;-3.10;75.00;99562.72;5014325;28;20682;-85
2022/01/22 06:28:30;;;;;;;16.30;5.00;;;;;;;-5.19;74.47;99192.47;4997732;28;20194;-83
2022/01/22 06:30:57;;;;;;;14.25;5.88;;;;;;;-2.52;74.67;99638.66;5014397;28;20163;-84
2022/01/22 06:33:22;;;;;;;15.00;7.18;;;;;;;-2.47;74.45;99637.50;5014042;28;20233;-83
2022/01/22 06:35:48;;;;;;;14.17;6.13;;;;;;;-4.10;73.91;99349.09;5011244;28;20226;-84
2022/01/22 06:38:14;;;;;;;11.50;4.67;;;;;;;-3.79;74.03;99371.16;5013612;28;20186;-83
2022/01/22 06:43:05;;;;;;;11.27;5.40;;;;;;;-1.98;72.85;99630.72;5018132;28;20646;-85
2022/01/22 06:45:31;;;;;;;13.18;5.65;;;;;;;-3.88;71.93;99283.72;5017088;28;20186;-84
2022/01/22 06:47:56;;;;;;;16.27;5.53;;;;;;;-1.86;71.83;99602.97;5013078;28;20253;-83
2022/01/22 06:50:22;;;;;;;20.03;6.70;;;;;;;-2.80;71.69;99439.41;5014141;28;20166;-83
2022/01/22 06:52:55;;;;;;;14.37;5.83;;;;;;;-2.36;71.81;99495.66;5016136;28;20167;-84
2022/01/22 06:55:39;;;;;;;14.55;5.95;;;;;;;-4.88;71.25;99049.16;5014823;28;20234;-83
2022/01/22 06:58:05;;;;;;;7.78;4.32;;;;;;;-4.33;70.90;99126.94;5015387;28;20166;-85
2022/01/22 07:00:30;;;;;;;9.17;4.23;;;;;;;-4.89;69.32;99031.03;5015653;28;20546;-85
2022/01/22 07:02:55;;;;;;;6.23;3.77;;;;;;;-3.41;69.56;99242.16;5020156;28;20190;-84
2022/01/22 07:05:21;;;;;;;11.27;4.17;;;;;;;-1.58;69.45;99556.81;5037075;28;20195;-85
2022/01/22 07:07:46;;;;;;;14.37;6.23;;;;;;;-1.63;69.51;99483.53;5033867;28;20174;-85
2022/01/22 07:10:12;;;;;;;5.67;3.43;;;;;;;-1.71;70.39;99511.75;5016714;28;20246;-85
2022/01/22 07:12:37;;;;;;;5.77;3.33;;;;;;;-2.77;69.94;99343.13;5013484;28;20189;-83
2022/01/22 07:15:04;;;;;;;7.43;3.93;;;;;;;-3.77;70.30;99166.97;5016369;28;20168;-82
2022/01/22 07:17:35;;;;;;;11.00;4.85;;;;;;;-1.83;70.11;99515.56;4996463;28;20205;-84
2022/01/22 07:20:03;;;;;;;7.50;3.67;;;;;;;-1.36;70.20;99611.78;5016316;28;20570;-84
2022/01/22 07:25:00;;;;;;;7.47;3.47;;;;;;;-4.19;70.05;99112.72;5015843;28;20225;-84
2022/01/22 07:27:25;;;;;;;9.80;4.70;;;;;;;-4.17;69.62;99145.88;5016069;28;20166;-84
2022/01/22 07:29:50;;;;;;;10.70;4.97;;;;;;;-2.73;68.71;99320.41;4997349;28;20206;-85
2022/01/22 07:32:26;;;;;;;11.50;5.30;;;;;;;-1.49;67.85;99450.06;5001176;28;20273;-84
2022/01/22 07:34:52;;;;;;;16.45;5.55;;;;;;;-3.32;66.52;99081.28;5018691;28;20185;-84
2022/01/22 07:37:17;;;;;;;13.17;6.77;;;;;;;-1.28;66.00;99413.13;5017515;28;20230;-85
2022/01/22 07:39:43;;;;;;;15.30;6.07;;;;;;;-2.40;67.69;99238.38;5016512;28;20681;-86
2022/01/22 07:42:08;;;;;;;16.13;5.47;;;;;;;-4.14;67.61;98978.84;5015624;28;20242;-85
2022/01/22 07:44:33;;;;;;;6.97;3.87;;;;;;;-1.80;68.48;99357.97;5015468;28;20638;-86
2022/01/22 07:46:59;;;;;;;10.90;4.03;;;;;;;-1.70;68.31;99353.84;5015207;28;20722;-87
2022/01/22 07:49:24;;;;;;;7.83;3.27;;;;;;;-1.23;68.33;99406.06;5018324;28;20202;-85
2022/01/22 07:51:50;;;;;;;7.17;3.47;;;;;;;-1.27;68.80;99428.91;5013845;28;20179;-85
2022/01/22 07:54:15;;;;;;;11.37;4.73;;;;;;;-1.39;69.71;99388.06;5014344;28;20167;-85
2022/01/22 07:56:41;;;;;;;17.43;6.77;;;;;;;-0.22;69.04;99521.94;5015556;28;20170;-85
2022/01/22 07:59:06;;;;;;;7.07;3.03;;;;;;;-1.38;67.70;99295.50;5016217;28;20163;-85
2022/01/22 08:01:31;;;;;;;10.97;5.67;;;;;;;0.02;68.03;99568.00;4998991;28;20265;-85
2022/01/22 08:03:57;;;;;;;6.67;3.67;;;;;;;-1.13;68.56;99386.31;5015904;28;20251;-86
2022/01/22 08:06:22;;;;;;;8.73;4.23;;;;;;;-0.86;68.00;99405.22;5016825;28;20561;-85
2022/01/22 08:08:48;;;;;;;25.60;8.40;;;;;;;-2.31;68.07;99120.25;5015913;28;20175;-85
2022/01/22 08:11:13;;;;;;;14.53;5.40;;;;;;;-1.66;67.97;99205.34;5016864;28;20179;-84
2022/01/22 08:13:39;;;;;;;15.80;5.83;;;;;;;-2.57;67.33;99041.13;5016400;28;20175;-84
2022/01/22 08:16:05;;;;;;;16.93;7.93;;;;;;;-3.70;67.43;98922.88;5017163;28;20233;-84
2022/01/22 08:18:31;;;;;;;14.07;5.93;;;;;;;-1.68;69.25;99287.84;5002433;28;20178;-85
2022/01/22 08:20:56;;;;;;;14.93;5.73;;;;;;;-1.33;67.98;99311.66;5018313;28;20171;-84
2022/01/22 08:23:23;;;;;;;11.23;4.50;;;;;;;-1.96;67.39;99161.38;5017513;28;20170;-85
2022/01/22 08:25:49;;;;;;;9.45;4.25;;;;;;;-1.74;66.87;99191.41;5017956;28;20320;-84
2022/01/22 08:31:05;;;;;;;5.95;3.10;;;;;;;-0.44;67.56;99388.19;5018098;28;20225;-83
2022/01/22 08:35:52;;;;;;;8.70;4.55;;;;;;;-0.79;67.63;99313.97;5017403;28;20170;-84
2022/01/22 08:36:16;;;;;;;7.13;3.60;;;;;;;0.71;67.03;99548.25;5020694;28;20237;-84
2022/01/22 08:38:41;;;;;;;6.70;3.43;;;;;;;-0.20;66.43;99405.19;5023832;28;20175;-84
2022/01/22 08:41:08;;;;;;;6.00;3.17;;;;;;;1.12;65.52;99549.19;5006060;28;20169;-83
2022/01/22 08:43:34;;;;;;;13.70;6.55;;;;;;;0.61;64.87;99383.81;5023314;28;20649;-84
2022/01/22 08:46:02;;;;;;;8.57;4.60;;;;;;;-1.46;66.50;99098.75;5023334;28;20194;-85
2022/01/22 08:48:28;;;;;;;12.85;6.07;;;;;;;-0.72;65.42;99192.00;5001184;28;20212;-83
2022/01/22 08:50:54;;;;;;;25.90;9.30;;;;;;;-2.20;66.38;98950.16;5025185;28;20659;-85
2022/01/22 08:53:19;;;;;;;23.97;8.63;;;;;;;1.36;65.32;99530.34;5019812;28;20159;-84
2022/01/22 08:55:45;;;;;;;22.83;7.60;;;;;;;-1.76;64.74;99016.78;5022453;28;20402;-85
2022/01/22 08:58:10;;;;;;;17.13;6.83;;;;;;;1.09;63.54;99430.16;5021411;28;20171;-84
2022/01/22 09:00:37;;;;;;;36.83;12.33;;;;;;;1.61;64.41;99529.06;5026068;28;20167;-85
2022/01/22 09:03:04;;;;;;;66.03;20.40;;;;;;;1.01;63.60;99375.47;5023110;28;20155;-85
2022/01/22 09:05:34;;;;;;;25.67;9.17;;;;;;;-0.06;61.92;99203.25;5023589;28;20469;-85
2022/01/22 09:07:59;;;;;;;25.10;11.07;;;;;;;-0.06;62.42;99213.19;5024488;28;20413;-83
2022/01/22 09:10:25;;;;;;;42.63;16.73;;;;;;;1.99;62.70;99519.63;5027161;28;20402;-85
2022/01/22 09:12:51;;;;;;;11.83;5.83;;;;;;;0.00;61.37;99173.91;5008075;28;20178;-84
2022/01/22 09:15:16;;;;;;;13.40;6.13;;;;;;;1.32;61.60;99379.59;5025549;28;20163;-84
2022/01/22 09:17:47;;;;;;;19.07;7.97;;;;;;;1.53;59.75;99383.81;5025855;28;20155;-85
2022/01/22 09:20:19;;;;;;;11.33;5.13;;;;;;;0.54;58.70;99204.78;5025596;28;20238;-85
2022/01/22 09:22:44;;;;;;;34.10;10.93;;;;;;;1.25;59.10;99260.22;5025927;28;20398;-85
2022/01/22 09:25:15;;;;;;;42.77;15.40;;;;;;;2.92;58.54;99501.91;5024310;28;20398;-85
2022/01/22 09:27:40;;;;;;;36.67;13.83;;;;;;;2.28;57.06;99370.44;5024795;28;20155;-84
2022/01/22 09:30:06;;;;;;;34.53;13.33;;;;;;;3.15;56.96;99490.25;5035871;28;20470;-82
2022/01/22 09:32:32;;;;;;;19.83;7.70;;;;;;;1.05;57.31;99158.97;5036425;28;20219;-83
2022/01/22 09:34:57;;;;;;;11.97;5.33;;;;;;;1.35;57.91;99216.91;5015248;28;20630;-84
2022/01/22 09:37:23;;;;;;;11.97;4.80;;;;;;;1.79;57.68;99266.91;5025639;28;20246;-84
2022/01/22 09:39:48;;;;;;;59.17;21.47;;;;;;;3.36;56.36;99467.66;5026622;28;20179;-84
2022/01/22 09:42:15;;;;;;;95.83;31.17;;;;;;;3.82;54.40;99450.94;5011668;28;20263;-84
2022/01/22 09:44:42;;;;;;;23.57;13.53;;;;;;;2.26;54.26;99234.59;5001662;28;20191;-84
2022/01/22 09:47:10;;;;;;;17.83;7.33;;;;;;;1.48;53.18;99133.19;5001248;28;20477;-84
2022/01/22 09:49:35;;;;;;;12.93;6.70;;;;;;;1.13;52.27;99115.56;5002479;28;20430;-86
2022/01/22 09:52:01;;;;;;;29.00;15.20;;;;;;;2.36;52.96;99242.84;5003785;28;20956;-84
2022/01/22 09:54:26;;;;;;;16.17;8.70;;;;;;;2.92;52.53;99271.91;5002142;28;20179;-84
2022/01/22 09:56:52;;;;;;;10.73;5.43;;;;;;;2.68;52.44;99300.16;5002118;28;20737;-86
2022/01/22 09:59:17;;;;;;;18.50;9.27;;;;;;;2.77;50.97;99252.47;5004021;28;20183;-84
2022/01/22 10:01:42;;;;;;;13.20;5.40;;;;;;;2.74;52.79;99302.25;5002970;28;20187;-85
2022/01/22 10:04:09;;;;;;;25.73;10.77;;;;;;;2.00;52.84;99097.91;5004406;28;20194;-86
2022/01/22 10:06:49;;;;;;;24.40;10.83;;;;;;;2.71;51.83;99209.56;5002155;28;20574;-84
2022/01/22 10:09:25;;;;;;;19.83;8.13;;;;;;;3.39;52.27;99367.81;4996608;28;20434;-84
2022/01/22 10:12:12;;;;;;;29.53;12.27;;;;;;;3.79;51.64;99395.66;4999003;28;20417;-83
2022/01/22 10:15:06;;;;;;;45.10;17.87;;;;;;;3.60;51.38;99382.59;4981862;28;20433;-84
2022/01/22 10:17:44;;;;;;;28.57;13.73;;;;;;;3.81;50.71;99401.63;4905875;29;20486;-83
2022/01/22 10:20:22;;;;;;;25.70;11.63;;;;;;;3.46;50.42;99384.16;4888979;29;20457;-85
2022/01/22 10:23:09;;;;;;;29.50;12.50;;;;;;;3.60;49.11;99347.56;4903613;29;20426;-84
2022/01/22 10:25:41;;;;;;;28.80;12.93;;;;;;;3.47;49.24;99300.78;4906004;29;20494;-83
2022/01/22 10:28:11;;;;;;;33.53;14.80;;;;;;;2.25;52.08;99137.97;4905249;29;20427;-85
2022/01/22 10:30:39;;;;;;;17.80;9.53;;;;;;;3.24;51.66;99310.84;4903166;29;20403;-84
2022/01/22 10:33:21;;;;;;;31.43;15.13;;;;;;;4.06;49.88;99375.88;4900638;29;20418;-84
2022/01/22 10:35:47;;;;;;;16.90;8.50;;;;;;;2.53;49.38;99159.13;4901971;29;20454;-85
2022/01/22 10:38:12;;;;;;;25.60;11.43;;;;;;;3.90;49.64;99360.53;4901876;29;20434;-84
2022/01/22 10:40:40;;;;;;;19.30;8.37;;;;;;;3.75;50.25;99402.06;4901762;29;20174;-83
2022/01/22 10:43:33;;;;;;;15.33;7.60;;;;;;;3.54;49.44;99232.91;4903612;29;20314;-83
2022/01/22 10:48:57;;;;;;;26.27;11.00;;;;;;;2.06;47.62;99170.72;4901126;29;20431;-83
2022/01/22 10:51:25;;;;;;;52.10;22.27;;;;;;;1.05;47.99;98993.63;4902155;29;20446;-83
2022/01/22 10:53:59;;;;;;;60.93;25.40;;;;;;;3.65;48.47;99367.16;4925548;28;20433;-85
2022/01/22 10:56:27;;;;;;;62.87;21.53;;;;;;;3.99;46.10;99360.31;5000805;28;20391;-84
2022/01/22 10:58:59;;;;;;;25.13;10.23;;;;;;;3.31;46.42;99353.91;4998560;28;20418;-84
2022/01/22 11:01:31;;;;;;;36.07;15.70;;;;;;;3.02;47.54;99370.97;4998705;28;20403;-85
2022/01/22 11:04:06;;;;;;;25.10;12.87;;;;;;;1.88;48.27;99253.38;4986851;28;20418;-84
2022/01/22 11:06:33;;;;;;;55.07;23.17;;;;;;;-0.33;48.57;98851.25;5002416;28;20449;-85
2022/01/22 11:08:58;;;;;;;54.93;24.77;;;;;;;1.96;48.49;99145.00;5005155;28;20407;-84
2022/01/22 11:11:24;;;;;;;41.90;18.87;;;;;;;0.50;50.43;98912.34;5006881;28;20190;-85
2022/01/22 11:13:50;;;;;;;37.37;12.97;;;;;;;3.35;50.54;99350.00;5008431;28;20163;-84
2022/01/22 11:16:17;;;;;;;24.43;9.97;;;;;;;2.00;48.70;99057.97;5006435;28;20691;-84
2022/01/22 11:18:46;;;;;;;31.10;12.93;;;;;;;0.62;47.78;98989.59;5006498;28;20419;-84
2022/01/22 11:21:12;;;;;;;31.73;12.60;;;;;;;1.34;48.84;99163.69;5004749;28;20889;-84
2022/01/22 11:23:38;;;;;;;58.17;21.30;;;;;;;1.86;49.44;99237.41;5005727;28;20432;-84
2022/01/22 11:26:04;;;;;;;43.27;18.00;;;;;;;2.03;48.28;99217.09;5005016;28;20453;-84
2022/01/22 11:28:29;;;;;;;44.20;17.20;;;;;;;0.73;48.64;99012.81;5004799;28;20407;-84
2022/01/22 11:30:56;;;;;;;38.83;15.83;;;;;;;0.05;50.24;98952.81;5004927;28;20183;-85
2022/01/22 11:33:24;;;;;;;50.13;18.00;;;;;;;-0.01;50.64;98958.19;5007745;28;20654;-84
2022/01/22 11:35:52;;;;;;;47.83;21.67;;;;;;;2.23;52.01;99337.63;4991850;28;20510;-84
2022/01/22 11:38:38;;;;;;;41.97;18.23;;;;;;;2.48;50.23;99332.81;4988739;28;20503;-84
2022/01/22 11:41:04;;;;;;;46.73;19.67;;;;;;;1.86;51.25;99219.94;5002779;28;20414;-83
2022/01/22 11:44:14;;;;;;;53.33;22.07;;;;;;;2.51;50.26;99324.66;5002635;28;20481;-84
2022/01/22 11:46:51;;;;;;;51.13;17.53;;;;;;;2.71;49.46;99315.38;5005122;28;20466;-83
2022/01/22 11:49:30;;;;;;;40.37;17.33;;;;;;;2.90;49.50;99317.56;5015534;28;20473;-83
2022/01/22 11:52:08;;;;;;;62.23;25.23;;;;;;;2.79;48.72;99328.44;5001357;28;20490;-84
2022/01/22 11:54:55;;;;;;;81.77;37.73;;;;;;;3.31;49.05;99318.88;5016285;28;20414;-85
2022/01/22 11:57:22;;;;;;;38.13;18.53;;;;;;;3.10;47.22;99316.50;4993756;28;20430;-84
2022/01/22 11:59:47;;;;;;;36.90;20.10;;;;;;;3.02;46.07;99317.59;5009260;28;20442;-84
2022/01/22 12:02:14;;;;;;;44.33;21.00;;;;;;;2.63;46.38;99208.13;4989718;28;20407;-84
2022/01/22 12:04:40;;;;;;;36.70;19.03;;;;;;;2.74;46.41;99310.63;5005759;28;20187;-83
2022/01/22 12:07:06;;;;;;;42.13;20.20;;;;;;;2.70;47.80;99306.13;5001595;28;20461;-84
2022/01/22 12:09:43;;;;;;;30.50;14.77;;;;;;;3.17;47.47;99294.53;5005473;28;20194;-83
2022/01/22 12:15:22;;;;;;;33.33;13.93;;;;;;;3.17;46.33;99298.66;5002883;28;20476;-83
2022/01/22 12:17:54;;;;;;;35.00;16.13;;;;;;;3.36;45.91;99279.16;5008066;28;20429;-84
2022/01/22 12:23:14;;;;;;;21.30;8.73;;;;;;;2.36;45.91;99115.47;5002552;28;20417;-84
2022/01/22 12:25:39;;;;;;;54.37;19.57;;;;;;;3.49;45.64;99290.13;4998333;28;20470;-84
2022/01/22 12:28:07;;;;;;;36.07;13.97;;;;;;;2.38;44.95;99091.50;5004442;28;20406;-84
2022/01/22 12:30:32;;;;;;;14.37;7.60;;;;;;;3.39;43.52;99284.38;5004035;28;20250;-84
2022/01/22 12:32:59;;;;;;;23.27;11.60;;;;;;;2.10;42.58;99121.91;5002069;28;20445;-84
2022/01/22 12:35:37;;;;;;;47.80;21.03;;;;;;;1.91;43.06;99077.28;4985446;28;20227;-84
2022/01/22 12:38:23;;;;;;;38.60;18.20;;;;;;;2.62;43.19;99164.78;5001244;28;20428;-84
2022/01/22 12:40:58;;;;;;;24.43;10.97;;;;;;;2.58;42.84;99130.38;4999784;28;20494;-84
2022/01/22 12:43:34;;;;;;;34.63;13.90;;;;;;;3.18;43.70;99168.72;5002815;28;20398;-83
2022/01/22 12:46:02;;;;;;;29.30;14.17;;;;;;;2.10;43.34;99029.53;4999200;28;20537;-84
2022/01/22 12:48:31;;;;;;;54.77;24.17;;;;;;;3.18;43.62;99210.38;4997673;28;20432;-83
2022/01/22 12:51:01;;;;;;;60.40;23.87;;;;;;;3.87;43.11;99287.75;4998734;28;20804;-84
2022/01/22 12:53:27;;;;;;;39.57;16.90;;;;;;;2.65;42.92;99080.06;4998231;28;20490;-84
2022/01/22 12:58:29;;;;;;;56.83;20.70;;;;;;;3.52;42.37;99295.34;4998967;28;20160;-84
2022/01/22 13:01:07;;;;;;;76.97;26.87;;;;;;;3.23;42.71;99294.09;4996266;28;20182;-84
2022/01/22 13:03:38;;;;;;;39.43;17.03;;;;;;;2.64;42.98;99199.88;4996463;28;20906;-83
2022/01/22 13:06:04;;;;;;;53.43;19.33;;;;;;;3.19;44.01;99312.13;4997368;28;20442;-85
2022/01/22 13:08:31;;;;;;;40.57;13.10;;;;;;;3.34;42.97;99293.22;4996208;28;20402;-84
2022/01/22 13:11:00;;;;;;;70.17;26.70;;;;;;;2.00;43.76;99114.53;4995896;28;20402;-83
2022/01/22 13:13:26;;;;;;;34.80;16.73;;;;;;;2.43;43.63;99161.75;4995292;28;20403;-84
2022/01/22 13:16:04;;;;;;;120.13;49.77;;;;;;;3.34;43.45;99293.22;4997066;28;20959;-83
2022/01/22 13:18:52;;;;;;;44.03;18.80;;;;;;;3.58;42.98;99284.88;4994218;28;20488;-84
2022/01/22 13:21:20;;;;;;;9.07;4.50;;;;;;;2.90;43.15;99253.44;4995109;28;20917;-83
2022/01/22 13:24:08;;;;;;;21.77;11.90;;;;;;;2.01;43.57;99046.34;4995042;28;20403;-84
2022/01/22 13:26:55;;;;;;;36.67;18.43;;;;;;;3.72;43.92;99279.19;4994695;28;20457;-84
2022/01/22 13:29:34;;;;;;;19.70;9.70;;;;;;;3.41;43.63;99282.84;4995209;28;20449;-83
2022/01/22 13:32:12;;;;;;;12.40;5.63;;;;;;;3.42;43.38;99282.09;4995040;28;20410;-83
2022/01/22 13:34:59;;;;;;;31.97;14.87;;;;;;;3.60;43.59;99293.34;4995352;28;20492;-83